createdAt,value
2018-12-05T00:00:12.378Z,21.3
2018-12-05T00:01:02.159Z,21.3
2018-12-05T00:01:52.498Z,21.3
2018-12-05T00:02:42.276Z,21.3
2018-12-05T00:03:32.593Z,21.2
2018-12-05T00:04:22.120Z,21.3
2018-12-05T00:05:12.451Z,21.3
2018-12-05T00:06:02.233Z,21.3
2018-12-05T00:06:52.838Z,21.3
2018-12-05T00:33:25.483Z,21.1
2018-12-05T00:34:15.206Z,21.1
2018-12-05T00:35:55.303Z,21.1
2018-12-05T00:36:45.066Z,21.1
2018-12-05T00:37:35.140Z,21.1
2018-12-05T00:38:25.798Z,21.1
2018-12-05T00:39:15.809Z,21.1
2018-12-05T00:40:06.173Z,21.1
2018-12-05T00:40:55.373Z,21.1
2018-12-05T00:41:45.975Z,21.1
2018-12-05T00:42:35.495Z,21.1
2018-12-05T00:43:26.164Z,21.1
2018-12-05T00:44:15.873Z,21.1
2018-12-05T00:45:06.207Z,21.1
2018-12-05T00:45:56.262Z,21.1
2018-12-05T00:46:46.312Z,21.1
2018-12-05T00:47:35.537Z,21.1
2018-12-05T00:48:26.430Z,21
2018-12-05T00:49:15.652Z,21.1
2018-12-05T00:50:06.277Z,21
2018-12-05T00:50:56.569Z,21
2018-12-05T00:51:45.842Z,21
2018-12-05T00:52:36.173Z,21
2018-12-05T00:53:26.777Z,21.1
2018-12-05T00:54:16.552Z,21
2018-12-05T00:55:06.890Z,21
2018-12-05T00:55:56.944Z,21
2018-12-05T00:56:46.722Z,21
2018-12-05T00:57:36.791Z,21
2018-12-05T00:58:27.114Z,21
2018-12-05T00:59:16.920Z,21
2018-12-05T01:00:07.244Z,20.9
2018-12-05T01:00:57.026Z,20.9
2018-12-05T01:01:47.342Z,20.9
2018-12-05T01:02:37.412Z,20.9
2018-12-05T01:03:26.929Z,20.9
2018-12-05T01:04:17.295Z,21
2018-12-05T01:05:09.299Z,21
2018-12-05T01:05:57.063Z,20.9
2018-12-05T01:06:47.703Z,20.9
2018-12-05T01:07:37.188Z,20.9
2018-12-05T01:08:27.814Z,20.9
2018-12-05T01:09:17.316Z,20.9
2018-12-05T01:10:06.860Z,20.9
2018-12-05T01:10:58.051Z,20.9
2018-12-05T01:11:48.098Z,20.9
2018-12-05T01:12:37.547Z,20.9
2018-12-05T01:13:27.856Z,20.9
2018-12-05T01:14:18.203Z,20.9
2018-12-05T01:15:08.356Z,20.9
2018-12-05T01:15:58.015Z,20.9
2018-12-05T01:16:47.830Z,20.9
2018-12-05T01:17:37.655Z,20.9
2018-12-05T01:18:28.225Z,20.9
2018-12-05T01:19:19.053Z,20.9
2018-12-05T01:20:07.775Z,20.9
2018-12-05T01:20:58.638Z,20.9
2018-12-05T01:21:48.442Z,20.9
2018-12-05T01:22:38.765Z,20.9
2018-12-05T01:23:28.845Z,20.9
2018-12-05T01:24:18.629Z,20.9
2018-12-05T01:25:08.670Z,20.9
2018-12-05T01:25:58.730Z,20.9
2018-12-05T01:26:48.220Z,20.9
2018-12-05T01:27:39.129Z,20.9
2018-12-05T01:28:28.349Z,20.9
2018-12-05T01:29:18.949Z,20.9
2018-12-05T01:30:09.252Z,20.9
2018-12-05T01:30:59.323Z,20.8
2018-12-05T01:31:48.574Z,20.8
2018-12-05T01:32:39.459Z,20.9
2018-12-05T01:33:29.252Z,20.8
2018-12-05T01:34:19.625Z,20.9
2018-12-05T01:35:09.889Z,20.8
2018-12-05T01:35:59.669Z,20.9
2018-12-05T01:36:49.264Z,20.8
2018-12-05T01:37:38.960Z,20.8
2018-12-05T01:38:29.317Z,20.8
2018-12-05T01:39:19.654Z,20.8
2018-12-05T01:40:09.973Z,20.8
2018-12-05T01:40:59.813Z,20.8
2018-12-05T01:41:49.804Z,20.8
2018-12-05T01:42:39.602Z,20.8
2018-12-05T01:43:29.686Z,20.8
2018-12-05T01:44:19.719Z,20.8
2018-12-05T01:45:10.310Z,20.8
2018-12-05T01:46:00.091Z,20.8
2018-12-05T01:46:50.154Z,20.8
2018-12-05T01:47:40.019Z,20.8
2018-12-05T01:48:30.280Z,20.8
2018-12-05T01:49:20.613Z,20.8
2018-12-05T01:50:10.381Z,20.8
2018-12-05T01:51:00.704Z,20.8
2018-12-05T01:51:49.734Z,20.8
2018-12-05T01:52:41.078Z,20.8
2018-12-05T01:53:30.899Z,20.8
2018-12-05T01:54:20.978Z,20.8
2018-12-05T01:55:10.441Z,20.8
2018-12-05T01:56:01.036Z,20.8
2018-12-05T01:56:51.078Z,20.8
2018-12-05T01:57:41.241Z,20.8
2018-12-05T01:58:30.479Z,20.8
2018-12-05T01:59:21.018Z,20.8
2018-12-05T02:00:11.346Z,20.8
2018-12-05T02:01:00.916Z,20.8
2018-12-05T02:01:51.428Z,20.8
2018-12-05T02:02:40.958Z,20.8
2018-12-05T02:03:31.578Z,20.8
2018-12-05T02:04:20.798Z,20.8
2018-12-05T02:05:11.128Z,20.8
2018-12-05T02:06:01.195Z,20.8
2018-12-05T02:06:51.808Z,20.8
2018-12-05T02:07:41.858Z,20.8
2018-12-05T02:08:31.090Z,20.7
2018-12-05T02:09:21.975Z,20.8
2018-12-05T02:10:11.751Z,20.8
2018-12-05T02:11:02.335Z,20.8
2018-12-05T02:11:51.877Z,20.8
2018-12-05T02:12:41.685Z,20.8
2018-12-05T02:13:31.982Z,20.7
2018-12-05T02:14:22.125Z,20.7
2018-12-05T02:15:12.105Z,20.7
2018-12-05T02:16:01.935Z,20.7
2018-12-05T02:16:52.491Z,20.7
2018-12-05T02:17:41.734Z,20.7
2018-12-05T02:18:32.322Z,20.7
2018-12-05T02:19:22.662Z,20.7
2018-12-05T02:20:12.515Z,20.7
2018-12-05T02:21:03.170Z,20.6
2018-12-05T02:21:52.569Z,20.7
2018-12-05T02:22:42.304Z,20.7
2018-12-05T02:23:32.664Z,20.7
2018-12-05T02:24:22.758Z,20.7
2018-12-05T02:25:13.049Z,20.7
2018-12-05T02:26:02.619Z,20.7
2018-12-05T02:26:53.169Z,20.7
2018-12-05T02:27:43.092Z,20.7
2018-12-05T02:28:33.014Z,20.7
2018-12-05T02:29:23.057Z,20.7
2018-12-05T02:30:13.536Z,20.7
2018-12-05T02:31:03.221Z,20.7
2018-12-05T02:31:53.512Z,20.6
2018-12-05T02:32:43.611Z,20.6
2018-12-05T02:33:33.642Z,20.6
2018-12-05T02:34:23.509Z,20.6
2018-12-05T02:35:13.201Z,20.6
2018-12-05T02:36:03.842Z,20.6
2018-12-05T02:36:53.661Z,20.7
2018-12-05T02:37:43.664Z,20.6
2018-12-05T02:38:33.723Z,20.6
2018-12-05T02:39:23.777Z,20.6
2018-12-05T02:40:14.087Z,20.6
2018-12-05T02:41:03.876Z,20.6
2018-12-05T02:41:53.751Z,20.6
2018-12-05T02:42:43.202Z,20.6
2018-12-05T02:43:33.788Z,20.7
2018-12-05T02:44:24.437Z,20.6
2018-12-05T02:45:14.220Z,20.6
2018-12-05T02:46:04.510Z,20.6
2018-12-05T02:46:53.965Z,20.6
2018-12-05T02:47:44.450Z,20.6
2018-12-05T02:48:34.373Z,20.7
2018-12-05T02:49:23.913Z,20.6
2018-12-05T02:50:14.516Z,20.7
2018-12-05T02:51:04.305Z,20.6
2018-12-05T02:51:54.623Z,20.7
2018-12-05T02:52:44.400Z,20.7
2018-12-05T02:53:34.537Z,20.7
2018-12-05T02:54:24.835Z,20.6
2018-12-05T02:55:15.170Z,20.7
2018-12-05T02:56:05.173Z,20.7
2018-12-05T02:56:54.771Z,20.7
2018-12-05T02:57:45.082Z,20.7
2018-12-05T02:58:36.073Z,20.7
2018-12-05T02:59:24.919Z,20.7
2018-12-05T03:00:15.568Z,20.7
2018-12-05T03:01:05.629Z,20.7
2018-12-05T03:01:55.029Z,20.7
2018-12-05T03:02:45.645Z,20.7
2018-12-05T03:03:35.141Z,20.7
2018-12-05T03:04:25.489Z,20.7
2018-12-05T03:05:15.647Z,20.7
2018-12-05T03:06:05.643Z,20.7
2018-12-05T03:06:55.944Z,20.7
2018-12-05T03:07:45.707Z,20.7
2018-12-05T03:08:35.781Z,20.7
2018-12-05T03:09:26.386Z,20.7
2018-12-05T03:10:15.619Z,20.7
2018-12-05T03:11:05.936Z,20.7
2018-12-05T03:11:55.986Z,20.7
2018-12-05T03:12:46.053Z,20.7
2018-12-05T03:13:35.838Z,20.7
2018-12-05T03:14:26.166Z,20.7
2018-12-05T03:15:16.216Z,20.7
2018-12-05T03:16:06.028Z,20.7
2018-12-05T03:16:56.326Z,20.7
2018-12-05T03:17:46.661Z,20.7
2018-12-05T03:18:36.455Z,20.7
2018-12-05T03:19:26.525Z,20.7
2018-12-05T03:20:16.547Z,20.8
2018-12-05T03:21:06.928Z,20.7
2018-12-05T03:21:56.968Z,20.7
2018-12-05T03:22:47.025Z,20.8
2018-12-05T03:23:36.815Z,20.7
2018-12-05T03:24:27.134Z,20.8
2018-12-05T03:25:16.902Z,20.8
2018-12-05T03:26:06.970Z,20.7
2018-12-05T03:26:57.055Z,20.7
2018-12-05T03:27:47.065Z,20.7
2018-12-05T03:28:37.414Z,20.8
2018-12-05T03:29:27.458Z,20.7
2018-12-05T03:30:17.466Z,20.7
2018-12-05T03:31:07.088Z,20.7
2018-12-05T03:31:57.466Z,20.8
2018-12-05T03:32:47.770Z,20.7
2018-12-05T03:33:37.597Z,20.8
2018-12-05T03:34:27.816Z,20.8
2018-12-05T03:35:19.270Z,20.7
2018-12-05T03:36:07.647Z,20.8
2018-12-05T03:36:57.424Z,20.7
2018-12-05T03:37:47.762Z,20.7
2018-12-05T03:38:38.179Z,20.7
2018-12-05T03:39:28.172Z,20.8
2018-12-05T03:40:17.985Z,20.8
2018-12-05T03:41:07.714Z,20.7
2018-12-05T03:41:58.117Z,20.8
2018-12-05T03:42:48.099Z,20.7
2018-12-05T03:43:38.447Z,20.7
2018-12-05T03:44:28.219Z,20.7
2018-12-05T03:45:18.281Z,20.7
2018-12-05T03:46:08.068Z,20.7
2018-12-05T03:46:58.371Z,20.7
2018-12-05T03:47:48.749Z,20.7
2018-12-05T03:48:38.514Z,20.7
2018-12-05T03:49:28.558Z,20.7
2018-12-05T03:50:18.131Z,20.7
2018-12-05T03:51:09.009Z,20.7
2018-12-05T03:51:58.455Z,20.8
2018-12-05T03:52:49.072Z,20.7
2018-12-05T03:53:39.151Z,20.7
2018-12-05T03:54:29.251Z,20.7
2018-12-05T03:55:20.754Z,20.7
2018-12-05T03:56:09.077Z,20.7
2018-12-05T03:56:59.434Z,20.7
2018-12-05T03:57:49.169Z,20.7
2018-12-05T03:58:38.983Z,20.7
2018-12-05T03:59:28.993Z,20.7
2018-12-05T04:00:19.335Z,20.7
2018-12-05T04:01:09.360Z,20.7
2018-12-05T04:01:59.798Z,20.7
2018-12-05T04:02:49.750Z,20.7
2018-12-05T04:03:39.529Z,20.7
2018-12-05T04:04:29.858Z,20.7
2018-12-05T04:05:19.929Z,20.7
2018-12-05T04:06:09.726Z,20.7
2018-12-05T04:07:01.275Z,20.7
2018-12-05T04:07:49.810Z,20.7
2018-12-05T04:08:40.177Z,20.7
2018-12-05T04:09:29.937Z,20.7
2018-12-05T04:10:20.004Z,20.7
2018-12-05T04:11:09.782Z,20.7
2018-12-05T04:11:59.834Z,20.7
2018-12-05T04:12:51.660Z,20.7
2018-12-05T04:13:39.925Z,20.7
2018-12-05T04:14:30.420Z,20.7
2018-12-05T04:15:20.360Z,20.7
2018-12-05T04:16:10.374Z,20.7
2018-12-05T04:17:00.467Z,20.7
2018-12-05T04:17:50.702Z,20.7
2018-12-05T04:18:40.899Z,20.7
2018-12-05T04:19:30.617Z,20.7
2018-12-05T04:20:20.682Z,20.7
2018-12-05T04:21:10.722Z,20.7
2018-12-05T04:22:01.056Z,20.7
2018-12-05T04:22:50.847Z,20.7
2018-12-05T04:23:41.287Z,20.7
2018-12-05T04:24:31.307Z,20.7
2018-12-05T04:25:20.734Z,20.7
2018-12-05T04:26:11.076Z,20.7
2018-12-05T04:27:00.889Z,20.7
2018-12-05T04:27:51.470Z,20.7
2018-12-05T04:28:40.977Z,20.7
2018-12-05T04:29:31.299Z,20.7
2018-12-05T04:30:21.612Z,20.7
2018-12-05T04:31:11.681Z,20.7
2018-12-05T04:32:01.487Z,20.7
2018-12-05T04:32:51.836Z,20.7
2018-12-05T04:33:41.312Z,20.7
2018-12-05T04:34:31.656Z,20.7
2018-12-05T04:35:21.706Z,20.7
2018-12-05T04:36:12.323Z,20.7
2018-12-05T04:37:02.201Z,20.7
2018-12-05T04:54:16.713Z,20.7
2018-12-05T04:55:05.240Z,20.7
2018-12-05T04:55:55.291Z,20.7
2018-12-05T04:56:45.396Z,20.8
2018-12-05T04:57:35.415Z,20.7
2018-12-05T04:58:25.792Z,20.8
2018-12-05T04:59:17.112Z,20.7
2018-12-05T05:00:05.342Z,20.7
2018-12-05T05:00:55.347Z,20.7
2018-12-05T05:01:45.707Z,20.7
2018-12-05T05:02:35.472Z,20.7
2018-12-05T05:03:25.789Z,20.7
2018-12-05T05:04:15.842Z,20.7
2018-12-05T05:05:06.161Z,20.7
2018-12-05T05:05:56.374Z,20.7
2018-12-05T05:06:45.851Z,20.7
2018-12-05T05:07:36.103Z,20.7
2018-12-05T05:08:26.148Z,20.7
2018-12-05T05:09:16.477Z,20.7
2018-12-05T05:10:05.721Z,20.7
2018-12-05T05:10:56.592Z,20.7
2018-12-05T05:11:46.437Z,20.8
2018-12-05T05:12:36.416Z,20.8
2018-12-05T05:13:26.782Z,20.8
2018-12-05T05:14:16.270Z,20.9
2018-12-05T05:15:06.326Z,20.9
2018-12-05T05:15:56.371Z,20.9
2018-12-05T05:16:46.707Z,21
2018-12-05T05:17:36.501Z,21.1
2018-12-05T05:18:26.821Z,21
2018-12-05T05:19:17.046Z,21
2018-12-05T05:20:07.177Z,20.9
2018-12-05T05:20:56.724Z,20.9
2018-12-05T05:21:46.773Z,20.9
2018-12-05T05:22:37.129Z,20.9
2018-12-05T05:23:27.454Z,20.9
2018-12-05T05:24:16.953Z,20.9
2018-12-05T05:25:07.557Z,20.9
2018-12-05T05:25:57.369Z,20.9
2018-12-05T05:26:47.391Z,20.8
2018-12-05T05:27:37.803Z,20.8
2018-12-05T05:28:27.222Z,20.8
2018-12-05T05:29:17.833Z,20.8
2018-12-05T05:30:07.924Z,20.8
2018-12-05T05:30:57.387Z,20.8
2018-12-05T05:31:48.000Z,20.8
2018-12-05T05:32:36.975Z,20.8
2018-12-05T05:33:27.870Z,20.8
2018-12-05T05:34:17.900Z,20.8
2018-12-05T05:35:07.965Z,20.8
2018-12-05T05:35:57.739Z,20.8
2018-12-05T05:36:48.362Z,20.8
2018-12-05T05:37:38.143Z,20.8
2018-12-05T05:38:27.687Z,20.8
2018-12-05T05:39:18.511Z,20.8
2018-12-05T05:40:08.610Z,20.8
2018-12-05T05:40:58.627Z,20.8
2018-12-05T05:41:48.402Z,20.8
2018-12-05T05:42:38.180Z,20.8
2018-12-05T05:43:28.247Z,20.8
2018-12-05T05:44:18.592Z,20.8
2018-12-05T05:45:08.630Z,20.8
2018-12-05T05:45:58.967Z,20.8
2018-12-05T05:46:49.074Z,20.8
2018-12-05T05:47:39.080Z,20.8
2018-12-05T05:48:28.842Z,20.7
2018-12-05T05:49:19.185Z,20.7
2018-12-05T05:50:08.972Z,20.7
2018-12-05T05:50:59.037Z,20.7
2018-12-05T05:51:48.797Z,20.7
2018-12-05T05:52:38.877Z,20.7
2018-12-05T05:53:28.919Z,20.7
2018-12-05T05:54:19.541Z,20.7
2018-12-05T05:55:09.597Z,20.7
2018-12-05T05:55:59.648Z,20.7
2018-12-05T05:56:49.464Z,20.7
2018-12-05T05:57:39.492Z,20.7
2018-12-05T05:58:29.262Z,20.7
2018-12-05T05:59:19.589Z,20.7
2018-12-05T06:00:09.936Z,20.7
2018-12-05T06:00:59.438Z,20.7
2018-12-05T06:01:50.044Z,20.7
2018-12-05T06:02:39.831Z,20.6
2018-12-05T06:03:29.931Z,20.6
2018-12-05T06:04:20.216Z,20.7
2018-12-05T06:05:09.991Z,20.7
2018-12-05T06:06:00.014Z,20.7
2018-12-05T06:06:50.095Z,20.6
2018-12-05T06:07:39.895Z,20.7
2018-12-05T06:08:29.941Z,20.6
2018-12-05T06:09:20.549Z,20.7
2018-12-05T06:10:10.336Z,20.6
2018-12-05T06:11:00.123Z,20.7
2018-12-05T06:11:50.713Z,20.6
2018-12-05T06:12:40.791Z,20.7
2018-12-05T06:13:30.273Z,20.6
2018-12-05T06:14:20.611Z,20.7
2018-12-05T06:15:10.944Z,20.7
2018-12-05T06:16:01.018Z,20.7
2018-12-05T06:16:50.779Z,20.6
2018-12-05T06:17:40.564Z,20.6
2018-12-05T06:18:30.906Z,20.7
2018-12-05T06:19:21.296Z,20.6
2018-12-05T06:20:11.003Z,20.6
2018-12-05T06:21:01.115Z,20.6
2018-12-05T06:21:51.115Z,20.6
2018-12-05T06:22:40.898Z,20.6
2018-12-05T06:23:31.283Z,20.6
2018-12-05T06:24:21.358Z,20.6
2018-12-05T06:25:11.661Z,20.6
2018-12-05T06:26:01.450Z,20.6
2018-12-05T06:26:51.460Z,20.6
2018-12-05T06:27:41.271Z,20.6
2018-12-05T06:28:31.895Z,20.6
2018-12-05T06:29:21.900Z,20.6
2018-12-05T06:30:11.415Z,20.6
2018-12-05T06:31:01.735Z,20.6
2018-12-05T06:31:52.057Z,20.6
2018-12-05T06:32:41.568Z,20.6
2018-12-05T06:33:34.120Z,20.6
2018-12-05T06:34:22.249Z,20.6
2018-12-05T06:35:12.304Z,20.6
2018-12-05T06:36:02.084Z,20.6
2018-12-05T06:36:52.135Z,20.6
2018-12-05T06:37:42.723Z,20.6
2018-12-05T06:38:32.244Z,20.6
2018-12-05T06:39:22.584Z,20.6
2018-12-05T06:40:12.086Z,20.6
2018-12-05T06:41:02.433Z,20.6
2018-12-05T06:41:52.539Z,20.6
2018-12-05T06:42:42.805Z,20.6
2018-12-05T06:43:32.866Z,20.6
2018-12-05T06:44:22.921Z,20.6
2018-12-05T06:45:13.064Z,20.6
2018-12-05T06:46:02.201Z,20.6
2018-12-05T06:46:52.811Z,20.6
2018-12-05T06:47:43.134Z,20.6
2018-12-05T06:48:33.232Z,20.6
2018-12-05T06:49:22.721Z,20.6
2018-12-05T06:50:13.328Z,20.6
2018-12-05T06:51:03.404Z,20.6
2018-12-05T06:51:52.614Z,20.6
2018-12-05T06:52:42.665Z,20.6
2018-12-05T06:53:33.274Z,20.6
2018-12-05T06:54:23.338Z,20.6
2018-12-05T06:55:13.459Z,20.6
2018-12-05T06:56:03.736Z,20.6
2018-12-05T06:56:53.498Z,20.6
2018-12-05T06:57:43.555Z,20.6
2018-12-05T06:58:33.620Z,20.6
2018-12-05T06:59:23.951Z,20.6
2018-12-05T07:00:13.470Z,20.6
2018-12-05T07:01:03.523Z,20.6
2018-12-05T07:01:53.893Z,20.5
2018-12-05T07:02:44.173Z,20.5
2018-12-05T07:03:33.940Z,20.6
2018-12-05T07:04:24.290Z,20.6
2018-12-05T07:05:14.070Z,20.6
2018-12-05T07:06:04.128Z,20.6
2018-12-05T07:06:54.188Z,20.6
2018-12-05T07:07:44.258Z,20.5
2018-12-05T07:08:34.598Z,20.6
2018-12-05T07:09:24.634Z,20.6
2018-12-05T07:10:14.420Z,20.5
2018-12-05T07:11:04.756Z,20.5
2018-12-05T07:11:54.232Z,20.6
2018-12-05T07:12:44.590Z,20.5
2018-12-05T07:13:34.931Z,20.5
2018-12-05T07:14:25.019Z,20.5
2018-12-05T07:15:14.485Z,20.5
2018-12-05T07:16:05.097Z,20.5
2018-12-05T07:16:54.870Z,20.5
2018-12-05T07:17:44.709Z,20.5
2018-12-05T07:18:36.075Z,20.5
2018-12-05T07:19:25.590Z,20.5
2018-12-05T07:20:15.157Z,20.5
2018-12-05T07:21:05.159Z,20.5
2018-12-05T07:21:54.929Z,20.5
2018-12-05T07:22:45.271Z,20.5
2018-12-05T07:23:35.599Z,20.5
2018-12-05T07:24:25.689Z,20.5
2018-12-05T07:25:15.171Z,20.5
2018-12-05T07:26:05.581Z,20.5
2018-12-05T07:26:55.563Z,20.5
2018-12-05T07:27:45.609Z,20.5
2018-12-05T07:28:35.986Z,20.5
2018-12-05T07:29:25.979Z,20.4
2018-12-05T07:30:15.235Z,20.5
2018-12-05T07:31:05.583Z,20.4
2018-12-05T07:31:55.911Z,20.4
2018-12-05T07:32:46.352Z,20.4
2018-12-05T07:33:36.291Z,20.4
2018-12-05T07:34:25.818Z,20.4
2018-12-05T07:35:16.123Z,20.4
2018-12-05T07:36:05.909Z,20.4
2018-12-05T07:36:55.698Z,20.4
2018-12-05T07:37:45.752Z,20.4
2018-12-05T07:38:36.350Z,20.4
2018-12-05T07:39:26.145Z,20.4
2018-12-05T07:40:16.753Z,20.4
2018-12-05T07:41:06.528Z,20.4
2018-12-05T07:41:56.860Z,20.4
2018-12-05T07:42:46.442Z,20.4
2018-12-05T07:43:36.973Z,20.4
2018-12-05T07:44:27.036Z,20.4
2018-12-05T07:45:17.093Z,20.4
2018-12-05T07:46:07.154Z,20.4
2018-12-05T07:46:57.207Z,20.4
2018-12-05T07:47:47.334Z,20.4
2018-12-05T07:48:37.309Z,20.4
2018-12-05T07:49:27.446Z,20.4
2018-12-05T07:50:19.222Z,20.4
2018-12-05T07:51:07.216Z,20.4
2018-12-05T07:51:57.537Z,20.4
2018-12-05T07:52:47.327Z,20.4
2018-12-05T07:53:37.164Z,20.4
2018-12-05T07:54:27.440Z,20.4
2018-12-05T07:55:17.492Z,20.3
2018-12-05T07:56:07.839Z,20.3
2018-12-05T07:56:57.327Z,20.4
2018-12-05T07:57:47.669Z,20.4
2018-12-05T07:58:37.714Z,20.3
2018-12-05T07:59:28.056Z,20.4
2018-12-05T08:00:18.097Z,20.3
2018-12-05T08:01:07.360Z,20.3
2018-12-05T08:01:58.234Z,20.3
2018-12-05T08:02:48.014Z,20.3
2018-12-05T08:03:38.317Z,20.3
2018-12-05T08:04:28.136Z,20.3
2018-12-05T08:05:18.464Z,20.3
2018-12-05T08:06:08.596Z,20.3
2018-12-05T08:06:58.591Z,20.3
2018-12-05T08:07:48.632Z,20.3
2018-12-05T08:08:38.775Z,20.3
2018-12-05T08:09:28.813Z,20.3
2018-12-05T08:10:18.959Z,20.3
2018-12-05T08:11:08.551Z,20.3
2018-12-05T08:11:59.005Z,20.3
2018-12-05T08:12:48.971Z,20.3
2018-12-05T08:13:39.035Z,20.3
2018-12-05T08:14:28.828Z,20.3
2018-12-05T08:15:18.878Z,20.3
2018-12-05T08:16:09.469Z,20.3
2018-12-05T08:16:58.439Z,20.3
2018-12-05T08:17:49.339Z,20.3
2018-12-05T08:18:38.840Z,20.3
2018-12-05T08:19:29.465Z,20.3
2018-12-05T08:20:19.229Z,20.3
2018-12-05T08:21:09.350Z,20.3
2018-12-05T08:21:59.077Z,20.3
2018-12-05T08:22:49.404Z,20.3
2018-12-05T08:23:39.449Z,20.3
2018-12-05T08:24:30.047Z,20.2
2018-12-05T08:25:19.844Z,20.3
2018-12-05T08:26:09.684Z,20.2
2018-12-05T08:26:59.964Z,20.3
2018-12-05T08:27:49.836Z,20.2
2018-12-05T08:28:40.076Z,20.3
2018-12-05T08:29:30.129Z,20.2
2018-12-05T08:30:20.192Z,20.2
2018-12-05T08:31:10.319Z,20.2
2018-12-05T08:32:00.319Z,20.2
2018-12-05T08:32:50.374Z,20.2
2018-12-05T08:33:39.881Z,20.2
2018-12-05T08:34:30.486Z,20.2
2018-12-05T08:35:20.538Z,20.2
2018-12-05T08:36:10.327Z,20.2
2018-12-05T08:37:00.668Z,20.2
2018-12-05T08:37:49.889Z,20.2
2018-12-05T08:38:40.504Z,20.2
2018-12-05T08:39:30.814Z,20.2
2018-12-05T08:40:20.600Z,20.1
2018-12-05T08:41:10.958Z,20.2
2018-12-05T08:42:01.004Z,20.1
2018-12-05T08:42:51.053Z,20.2
2018-12-05T08:43:41.128Z,20.1
2018-12-05T08:44:31.175Z,20.1
2018-12-05T08:45:20.948Z,20.1
2018-12-05T08:46:11.313Z,20.1
2018-12-05T08:47:00.788Z,20.1
2018-12-05T08:47:51.407Z,20.1
2018-12-05T08:48:41.472Z,20.1
2018-12-05T08:49:31.002Z,20.1
2018-12-05T08:50:21.315Z,20.1
2018-12-05T08:51:11.367Z,20.1
2018-12-05T08:52:01.143Z,20.1
2018-12-05T08:52:51.762Z,20.1
2018-12-05T09:08:39.196Z,20
2018-12-05T09:09:29.613Z,20.1
2018-12-05T09:10:19.351Z,20.1
2018-12-05T09:11:09.134Z,20.1
2018-12-05T09:11:59.173Z,20.1
2018-12-05T09:12:49.516Z,20.1
2018-12-05T09:13:39.403Z,20.1
2018-12-05T09:14:32.131Z,20.1
2018-12-05T09:15:19.973Z,20.1
2018-12-05T09:16:10.035Z,20
2018-12-05T09:16:59.801Z,20
2018-12-05T09:17:50.378Z,20
2018-12-05T09:18:39.916Z,20
2018-12-05T09:19:29.978Z,20
2018-12-05T09:20:20.025Z,20
2018-12-05T09:21:09.843Z,20
2018-12-05T09:21:59.873Z,20
2018-12-05T09:22:50.736Z,20
2018-12-05T09:23:40.258Z,20
2018-12-05T09:24:30.045Z,20
2018-12-05T09:25:20.104Z,20
2018-12-05T09:26:10.701Z,20
2018-12-05T09:27:00.213Z,20
2018-12-05T09:27:50.836Z,20
2018-12-05T09:28:40.320Z,20
2018-12-05T09:29:30.458Z,20
2018-12-05T09:30:20.165Z,20
2018-12-05T09:31:10.575Z,20
2018-12-05T09:32:00.833Z,20
2018-12-05T09:32:51.241Z,19.9
2018-12-05T09:33:40.952Z,20
2018-12-05T09:34:31.263Z,20
2018-12-05T09:35:21.677Z,20
2018-12-05T09:36:11.403Z,20
2018-12-05T09:37:01.544Z,19.9
2018-12-05T09:37:51.514Z,20
2018-12-05T09:38:41.559Z,20
2018-12-05T09:39:31.612Z,19.9
2018-12-05T09:40:21.129Z,20
2018-12-05T09:41:11.182Z,19.9
2018-12-05T09:42:01.257Z,19.9
2018-12-05T09:42:51.847Z,19.9
2018-12-05T09:43:41.927Z,19.9
2018-12-05T09:44:32.019Z,19.9
2018-12-05T09:45:21.764Z,19.9
2018-12-05T09:46:12.111Z,19.9
2018-12-05T09:47:01.875Z,19.9
2018-12-05T09:47:51.346Z,19.9
2018-12-05T09:48:41.717Z,19.9
2018-12-05T09:49:32.344Z,19.9
2018-12-05T09:50:22.419Z,19.9
2018-12-05T09:51:12.429Z,19.9
2018-12-05T09:52:02.496Z,19.9
2018-12-05T09:52:52.846Z,19.9
2018-12-05T09:53:42.166Z,19.9
2018-12-05T09:54:32.706Z,19.9
2018-12-05T09:55:22.448Z,19.9
2018-12-05T09:56:12.216Z,19.9
2018-12-05T09:57:02.840Z,19.9
2018-12-05T09:57:52.889Z,19.9
2018-12-05T09:58:42.193Z,19.9
2018-12-05T09:59:32.979Z,19.9
2018-12-05T10:00:22.598Z,19.9
2018-12-05T10:01:12.583Z,19.9
2018-12-05T10:02:03.205Z,19.9
2018-12-05T10:02:52.985Z,19.9
2018-12-05T10:03:42.463Z,19.9
2018-12-05T10:04:33.081Z,19.9
2018-12-05T10:05:23.425Z,19.9
2018-12-05T10:06:12.920Z,19.9
2018-12-05T10:07:02.985Z,19.9
2018-12-05T10:07:53.583Z,19.9
2018-12-05T10:08:43.367Z,19.9
2018-12-05T10:09:33.427Z,19.9
2018-12-05T10:10:23.208Z,19.9
2018-12-05T10:11:13.285Z,19.9
2018-12-05T10:12:03.613Z,19.9
2018-12-05T10:12:53.755Z,19.9
2018-12-05T10:13:44.287Z,19.9
2018-12-05T10:14:33.489Z,19.9
2018-12-05T10:15:23.554Z,19.9
2018-12-05T10:16:14.173Z,19.9
2018-12-05T10:17:03.662Z,19.9
2018-12-05T10:17:54.022Z,19.9
2018-12-05T10:18:44.049Z,19.9
2018-12-05T10:19:34.127Z,19.9
2018-12-05T10:20:23.619Z,19.9
2018-12-05T10:21:14.515Z,19.9
2018-12-05T10:22:03.801Z,19.8
2018-12-05T10:22:54.701Z,19.8
2018-12-05T10:23:44.124Z,19.8
2018-12-05T10:24:34.744Z,19.8
2018-12-05T10:25:24.224Z,19.8
2018-12-05T10:26:14.121Z,19.8
2018-12-05T10:27:04.618Z,19.8
2018-12-05T10:27:54.684Z,19.8
2018-12-05T10:28:45.274Z,19.8
2018-12-05T10:29:35.147Z,19.8
2018-12-05T10:30:24.831Z,19.8
2018-12-05T10:31:15.191Z,19.8
2018-12-05T10:32:06.622Z,19.8
2018-12-05T10:32:54.755Z,19.8
2018-12-05T10:33:45.081Z,19.8
2018-12-05T10:34:35.411Z,19.8
2018-12-05T10:35:25.463Z,19.8
2018-12-05T10:36:15.256Z,19.8
2018-12-05T10:37:05.045Z,19.8
2018-12-05T10:37:56.867Z,19.8
2018-12-05T10:38:45.420Z,19.8
2018-12-05T10:39:35.535Z,19.8
2018-12-05T10:40:25.530Z,19.8
2018-12-05T10:41:15.395Z,19.8
2018-12-05T10:42:05.675Z,19.8
2018-12-05T10:42:55.220Z,19.8
2018-12-05T10:43:45.757Z,19.8
2018-12-05T10:44:36.165Z,19.8
2018-12-05T10:45:26.215Z,19.8
2018-12-05T10:46:15.939Z,19.8
2018-12-05T10:47:06.002Z,19.8
2018-12-05T10:47:55.777Z,19.8
2018-12-05T10:48:46.117Z,19.8
2018-12-05T10:49:36.189Z,19.8
2018-12-05T10:50:26.509Z,19.8
2018-12-05T10:51:16.564Z,19.8
2018-12-05T10:52:06.624Z,19.8
2018-12-05T10:52:56.681Z,19.8
2018-12-05T10:53:46.172Z,19.8
2018-12-05T10:54:36.916Z,19.8
2018-12-05T10:55:26.569Z,19.8
2018-12-05T10:56:16.369Z,19.8
2018-12-05T10:57:06.676Z,19.8
2018-12-05T10:57:57.114Z,19.8
2018-12-05T10:58:46.817Z,19.8
2018-12-05T10:59:36.901Z,19.8
2018-12-05T11:00:26.929Z,19.8
2018-12-05T11:01:16.968Z,19.8
2018-12-05T11:02:07.299Z,19.8
2018-12-05T11:02:57.368Z,19.8
2018-12-05T11:03:47.421Z,19.8
2018-12-05T11:04:37.508Z,19.8
2018-12-05T11:05:27.258Z,19.8
2018-12-05T11:06:17.595Z,19.8
2018-12-05T11:07:07.385Z,19.8
2018-12-05T11:07:57.425Z,19.8
2018-12-05T11:08:47.765Z,19.8
2018-12-05T11:09:37.533Z,19.8
2018-12-05T11:10:27.592Z,19.7
2018-12-05T11:11:17.382Z,19.7
2018-12-05T11:12:07.727Z,19.8
2018-12-05T11:12:58.042Z,19.8
2018-12-05T11:13:48.117Z,19.8
2018-12-05T11:14:38.159Z,19.8
2018-12-05T11:15:28.227Z,19.8
2018-12-05T11:16:18.273Z,19.8
2018-12-05T11:17:08.337Z,19.7
2018-12-05T11:17:58.424Z,19.8
2018-12-05T11:18:48.454Z,19.8
2018-12-05T11:19:38.274Z,19.8
2018-12-05T11:20:28.366Z,19.7
2018-12-05T11:21:18.612Z,19.8
2018-12-05T11:22:08.739Z,19.7
2018-12-05T11:22:58.739Z,19.8
2018-12-05T11:23:50.475Z,19.8
2018-12-05T11:24:38.561Z,19.8
2018-12-05T11:25:28.355Z,19.7
2018-12-05T11:26:18.686Z,19.8
2018-12-05T11:27:09.318Z,19.8
2018-12-05T11:27:59.327Z,19.7
2018-12-05T11:28:48.857Z,19.7
2018-12-05T11:29:38.714Z,19.7
2018-12-05T11:30:28.777Z,19.7
2018-12-05T11:31:18.546Z,19.7
2018-12-05T11:32:08.826Z,19.8
2018-12-05T11:32:58.828Z,19.7
2018-12-05T11:33:49.488Z,19.7
2018-12-05T11:34:38.695Z,19.7
2018-12-05T11:35:29.302Z,19.8
2018-12-05T11:36:19.190Z,19.7
2018-12-05T11:37:09.719Z,19.7
2018-12-05T11:37:59.497Z,19.8
2018-12-05T11:38:49.829Z,19.7
2018-12-05T11:39:39.612Z,19.7
2018-12-05T11:40:29.654Z,19.7
2018-12-05T11:41:19.697Z,19.7
2018-12-05T11:42:09.872Z,19.7
2018-12-05T11:42:59.879Z,19.7
2018-12-05T11:43:50.157Z,19.7
2018-12-05T11:44:40.219Z,19.7
2018-12-05T11:45:29.994Z,19.7
2018-12-05T11:46:20.059Z,19.7
2018-12-05T11:47:09.918Z,19.7
2018-12-05T11:48:00.694Z,19.7
2018-12-05T11:48:50.227Z,19.7
2018-12-05T11:49:40.307Z,19.7
2018-12-05T11:50:30.394Z,19.7
2018-12-05T11:51:20.204Z,19.7
2018-12-05T11:52:10.517Z,19.7
2018-12-05T11:53:00.784Z,19.7
2018-12-05T11:53:51.089Z,19.7
2018-12-05T11:54:40.919Z,19.7
2018-12-05T11:55:31.106Z,19.7
2018-12-05T11:56:21.028Z,19.7
2018-12-05T11:57:10.803Z,19.7
2018-12-05T11:58:01.391Z,19.6
2018-12-05T11:58:51.431Z,19.7
2018-12-05T11:59:40.698Z,19.6
2018-12-05T12:00:31.556Z,19.7
2018-12-05T12:01:21.090Z,19.6
2018-12-05T12:02:11.436Z,19.6
2018-12-05T12:03:00.891Z,19.7
2018-12-05T12:03:51.069Z,19.7
2018-12-05T12:04:41.323Z,19.6
2018-12-05T12:05:31.702Z,19.7
2018-12-05T12:06:21.435Z,19.7